sensor_id;sensor_type;location;lat;lon;timestamp;temperature;humidity
46562;DHT22;32289;42.688;23.330;2022-11-09T00:02:46;8.50;99.90
46562;DHT22;32289;42.688;23.330;2022-11-09T00:06:28;8.60;99.90
46562;DHT22;32289;42.688;23.330;2022-11-09T00:10:09;8.60;99.90
46562;DHT22;32289;42.688;23.330;2022-11-09T00:13:50;8.70;99.90
46562;DHT22;32289;42.688;23.330;2022-11-09T00:17:31;8.80;99.90
46562;DHT22;32289;42.688;23.330;2022-11-09T00:21:16;8.90;99.90
46562;DHT22;32289;42.688;23.330;2022-11-09T00:24:57;8.90;99.90
46562;DHT22;32289;42.688;23.330;2022-11-09T00:28:38;9.00;99.90
46562;DHT22;32289;42.688;23.330;2022-11-09T00:32:19;8.90;99.90
46562;DHT22;32289;42.688;23.330;2022-11-09T00:36:03;9.00;99.90
46562;DHT22;32289;42.688;23.330;2022-11-09T00:39:49;8.90;99.90
46562;DHT22;32289;42.688;23.330;2022-11-09T00:43:30;8.90;99.90
46562;DHT22;32289;42.688;23.330;2022-11-09T00:47:11;9.00;99.90
46562;DHT22;32289;42.688;23.330;2022-11-09T00:50:53;9.00;99.90
46562;DHT22;32289;42.688;23.330;2022-11-09T00:54:34;8.90;99.90
46562;DHT22;32289;42.688;23.330;2022-11-09T00:58:15;8.90;99.90
46562;DHT22;32289;42.688;23.330;2022-11-09T01:01:55;9.00;99.90
46562;DHT22;32289;42.688;23.330;2022-11-09T01:05:39;9.00;99.90
46562;DHT22;32289;42.688;23.330;2022-11-09T01:09:20;9.00;99.90
46562;DHT22;32289;42.688;23.330;2022-11-09T01:13:00;9.00;99.90
46562;DHT22;32289;42.688;23.330;2022-11-09T01:16:41;9.10;99.90
46562;DHT22;32289;42.688;23.330;2022-11-09T01:20:22;9.10;99.90
46562;DHT22;32289;42.688;23.330;2022-11-09T01:24:03;9.10;99.90
46562;DHT22;32289;42.688;23.330;2022-11-09T01:27:43;9.10;99.90
46562;DHT22;32289;42.688;23.330;2022-11-09T01:31:24;9.10;99.90
46562;DHT22;32289;42.688;23.330;2022-11-09T01:35:08;9.00;99.90
46562;DHT22;32289;42.688;23.330;2022-11-09T01:38:49;9.10;99.90
46562;DHT22;32289;42.688;23.330;2022-11-09T01:42:35;9.20;99.90
46562;DHT22;32289;42.688;23.330;2022-11-09T01:46:23;9.20;99.90
46562;DHT22;32289;42.688;23.330;2022-11-09T01:50:07;9.30;99.90
46562;DHT22;32289;42.688;23.330;2022-11-09T01:53:54;9.30;99.90
46562;DHT22;32289;42.688;23.330;2022-11-09T01:57:50;9.20;99.90
46562;DHT22;32289;42.688;23.330;2022-11-09T02:01:32;9.20;99.90
46562;DHT22;32289;42.688;23.330;2022-11-09T02:05:18;9.20;99.90
46562;DHT22;32289;42.688;23.330;2022-11-09T02:09:10;9.30;99.90
46562;DHT22;32289;42.688;23.330;2022-11-09T02:12:53;9.40;99.90
46562;DHT22;32289;42.688;23.330;2022-11-09T02:16:34;9.40;99.90
46562;DHT22;32289;42.688;23.330;2022-11-09T02:20:15;9.40;99.90
46562;DHT22;32289;42.688;23.330;2022-11-09T02:23:57;9.40;99.90
46562;DHT22;32289;42.688;23.330;2022-11-09T02:27:39;9.40;99.90
46562;DHT22;32289;42.688;23.330;2022-11-09T02:31:24;9.40;99.90
46562;DHT22;32289;42.688;23.330;2022-11-09T02:35:07;9.40;99.90
46562;DHT22;32289;42.688;23.330;2022-11-09T02:38:50;9.50;99.90
46562;DHT22;32289;42.688;23.330;2022-11-09T02:42:31;9.40;99.90
46562;DHT22;32289;42.688;23.330;2022-11-09T02:46:12;9.40;99.90
46562;DHT22;32289;42.688;23.330;2022-11-09T02:49:59;9.40;99.90
46562;DHT22;32289;42.688;23.330;2022-11-09T02:53:40;9.40;99.90
46562;DHT22;32289;42.688;23.330;2022-11-09T02:57:21;9.40;99.90
46562;DHT22;32289;42.688;23.330;2022-11-09T03:01:01;9.40;99.90
46562;DHT22;32289;42.688;23.330;2022-11-09T03:04:44;9.40;99.90
46562;DHT22;32289;42.688;23.330;2022-11-09T03:08:25;9.40;99.90
46562;DHT22;32289;42.688;23.330;2022-11-09T03:12:09;9.40;99.90
46562;DHT22;32289;42.688;23.330;2022-11-09T03:16:08;9.40;99.90
46562;DHT22;32289;42.688;23.330;2022-11-09T03:19:49;9.30;99.90
46562;DHT22;32289;42.688;23.330;2022-11-09T03:23:29;9.30;99.90
46562;DHT22;32289;42.688;23.330;2022-11-09T03:27:10;9.20;99.90
46562;DHT22;32289;42.688;23.330;2022-11-09T03:30:51;9.10;99.90
46562;DHT22;32289;42.688;23.330;2022-11-09T03:34:32;9.00;99.90
46562;DHT22;32289;42.688;23.330;2022-11-09T03:38:13;8.80;99.90
46562;DHT22;32289;42.688;23.330;2022-11-09T03:41:54;8.70;99.90
46562;DHT22;32289;42.688;23.330;2022-11-09T03:45:35;8.60;99.90
46562;DHT22;32289;42.688;23.330;2022-11-09T03:49:15;8.60;99.90
46562;DHT22;32289;42.688;23.330;2022-11-09T03:52:57;8.50;99.90
46562;DHT22;32289;42.688;23.330;2022-11-09T03:56:38;8.40;99.90
46562;DHT22;32289;42.688;23.330;2022-11-09T04:00:20;8.40;99.90
46562;DHT22;32289;42.688;23.330;2022-11-09T04:04:01;8.40;99.90
46562;DHT22;32289;42.688;23.330;2022-11-09T04:07:54;8.20;99.90
46562;DHT22;32289;42.688;23.330;2022-11-09T04:11:35;8.20;99.90
46562;DHT22;32289;42.688;23.330;2022-11-09T04:15:16;8.20;99.90
46562;DHT22;32289;42.688;23.330;2022-11-09T04:18:57;8.10;99.90
46562;DHT22;32289;42.688;23.330;2022-11-09T04:22:37;8.00;99.90
46562;DHT22;32289;42.688;23.330;2022-11-09T04:26:18;8.00;99.90
46562;DHT22;32289;42.688;23.330;2022-11-09T04:29:59;8.00;99.90
46562;DHT22;32289;42.688;23.330;2022-11-09T04:33:40;7.90;99.90
46562;DHT22;32289;42.688;23.330;2022-11-09T04:37:20;7.90;99.90
46562;DHT22;32289;42.688;23.330;2022-11-09T04:41:06;7.90;99.90
46562;DHT22;32289;42.688;23.330;2022-11-09T04:44:47;8.00;99.90
46562;DHT22;32289;42.688;23.330;2022-11-09T04:48:31;7.90;99.90
46562;DHT22;32289;42.688;23.330;2022-11-09T04:52:12;7.90;99.90
46562;DHT22;32289;42.688;23.330;2022-11-09T04:55:53;7.90;99.90
46562;DHT22;32289;42.688;23.330;2022-11-09T04:59:34;8.00;99.90
46562;DHT22;32289;42.688;23.330;2022-11-09T05:03:15;7.90;99.90
46562;DHT22;32289;42.688;23.330;2022-11-09T05:06:56;8.00;99.90
46562;DHT22;32289;42.688;23.330;2022-11-09T05:10:37;8.00;99.90
46562;DHT22;32289;42.688;23.330;2022-11-09T05:14:17;8.00;99.90
46562;DHT22;32289;42.688;23.330;2022-11-09T05:17:58;8.10;99.90
46562;DHT22;32289;42.688;23.330;2022-11-09T05:21:41;8.20;99.90
46562;DHT22;32289;42.688;23.330;2022-11-09T05:25:21;8.10;99.90
46562;DHT22;32289;42.688;23.330;2022-11-09T05:29:09;8.00;99.90
46562;DHT22;32289;42.688;23.330;2022-11-09T05:32:49;8.00;99.90
46562;DHT22;32289;42.688;23.330;2022-11-09T05:36:30;8.10;99.90
46562;DHT22;32289;42.688;23.330;2022-11-09T05:40:15;8.20;99.90
46562;DHT22;32289;42.688;23.330;2022-11-09T05:43:55;8.20;99.90
46562;DHT22;32289;42.688;23.330;2022-11-09T05:47:41;8.20;99.90
46562;DHT22;32289;42.688;23.330;2022-11-09T05:51:22;8.10;99.90
46562;DHT22;32289;42.688;23.330;2022-11-09T05:55:03;8.20;99.90
46562;DHT22;32289;42.688;23.330;2022-11-09T05:58:44;8.30;99.90
46562;DHT22;32289;42.688;23.330;2022-11-09T06:02:25;8.30;99.90
46562;DHT22;32289;42.688;23.330;2022-11-09T06:06:13;8.40;99.90
46562;DHT22;32289;42.688;23.330;2022-11-09T06:09:54;8.50;99.90
46562;DHT22;32289;42.688;23.330;2022-11-09T06:13:35;8.70;99.90
46562;DHT22;32289;42.688;23.330;2022-11-09T06:17:16;8.80;99.90
46562;DHT22;32289;42.688;23.330;2022-11-09T06:20:59;8.90;99.90
46562;DHT22;32289;42.688;23.330;2022-11-09T06:24:40;9.10;99.90
46562;DHT22;32289;42.688;23.330;2022-11-09T06:28:21;9.40;99.90
46562;DHT22;32289;42.688;23.330;2022-11-09T06:32:02;9.80;99.90
46562;DHT22;32289;42.688;23.330;2022-11-09T06:35:43;10.00;99.90
46562;DHT22;32289;42.688;23.330;2022-11-09T06:39:24;10.10;99.90
46562;DHT22;32289;42.688;23.330;2022-11-09T06:43:05;10.20;99.90
46562;DHT22;32289;42.688;23.330;2022-11-09T06:46:46;10.50;99.90
46562;DHT22;32289;42.688;23.330;2022-11-09T06:50:29;10.40;99.90
46562;DHT22;32289;42.688;23.330;2022-11-09T06:54:10;10.00;99.90
46562;DHT22;32289;42.688;23.330;2022-11-09T06:57:50;10.00;99.90
46562;DHT22;32289;42.688;23.330;2022-11-09T07:01:31;10.00;99.90
46562;DHT22;32289;42.688;23.330;2022-11-09T07:05:12;10.20;99.90
46562;DHT22;32289;42.688;23.330;2022-11-09T07:08:56;10.10;99.90
46562;DHT22;32289;42.688;23.330;2022-11-09T07:12:37;10.10;99.90
46562;DHT22;32289;42.688;23.330;2022-11-09T07:16:18;10.30;99.90
46562;DHT22;32289;42.688;23.330;2022-11-09T07:20:00;10.30;99.90
46562;DHT22;32289;42.688;23.330;2022-11-09T07:23:41;10.50;99.90
46562;DHT22;32289;42.688;23.330;2022-11-09T07:27:22;10.70;99.90
46562;DHT22;32289;42.688;23.330;2022-11-09T07:31:03;10.80;99.90
46562;DHT22;32289;42.688;23.330;2022-11-09T07:34:44;11.30;99.90
46562;DHT22;32289;42.688;23.330;2022-11-09T07:38:27;11.40;99.90
46562;DHT22;32289;42.688;23.330;2022-11-09T07:42:08;11.40;99.90
46562;DHT22;32289;42.688;23.330;2022-11-09T07:45:49;11.80;99.90
46562;DHT22;32289;42.688;23.330;2022-11-09T07:49:29;12.20;99.90
46562;DHT22;32289;42.688;23.330;2022-11-09T07:53:12;15.00;99.90
46562;DHT22;32289;42.688;23.330;2022-11-09T07:56:53;16.20;94.10
46562;DHT22;32289;42.688;23.330;2022-11-09T08:00:39;17.80;90.20
46562;DHT22;32289;42.688;23.330;2022-11-09T08:04:20;18.30;83.60
46562;DHT22;32289;42.688;23.330;2022-11-09T08:08:03;19.80;77.20
46562;DHT22;32289;42.688;23.330;2022-11-09T08:11:44;19.60;75.30
46562;DHT22;32289;42.688;23.330;2022-11-09T08:15:25;20.40;74.20
46562;DHT22;32289;42.688;23.330;2022-11-09T08:19:06;19.00;74.90
46562;DHT22;32289;42.688;23.330;2022-11-09T08:22:49;21.00;70.00
46562;DHT22;32289;42.688;23.330;2022-11-09T08:26:31;20.50;67.40
46562;DHT22;32289;42.688;23.330;2022-11-09T08:30:19;19.70;71.00
46562;DHT22;32289;42.688;23.330;2022-11-09T08:34:12;18.50;72.50
46562;DHT22;32289;42.688;23.330;2022-11-09T08:38:00;19.10;74.20
46562;DHT22;32289;42.688;23.330;2022-11-09T08:41:41;18.90;75.90
46562;DHT22;32289;42.688;23.330;2022-11-09T08:45:22;17.60;78.10
46562;DHT22;32289;42.688;23.330;2022-11-09T08:49:02;17.60;79.50
46562;DHT22;32289;42.688;23.330;2022-11-09T08:52:43;17.60;80.30
46562;DHT22;32289;42.688;23.330;2022-11-09T08:56:24;20.10;73.30
46562;DHT22;32289;42.688;23.330;2022-11-09T09:00:05;21.10;70.80
46562;DHT22;32289;42.688;23.330;2022-11-09T09:03:53;19.70;70.00
46562;DHT22;32289;42.688;23.330;2022-11-09T09:07:37;19.50;72.20
46562;DHT22;32289;42.688;23.330;2022-11-09T09:11:17;18.80;74.10
46562;DHT22;32289;42.688;23.330;2022-11-09T09:14:58;20.10;69.20
46562;DHT22;32289;42.688;23.330;2022-11-09T09:18:39;20.00;70.70
46562;DHT22;32289;42.688;23.330;2022-11-09T09:22:20;18.70;72.70
46562;DHT22;32289;42.688;23.330;2022-11-09T09:26:01;17.80;75.90
46562;DHT22;32289;42.688;23.330;2022-11-09T09:29:41;18.10;74.50
46562;DHT22;32289;42.688;23.330;2022-11-09T09:33:22;17.80;75.40
46562;DHT22;32289;42.688;23.330;2022-11-09T09:37:05;17.20;80.00
46562;DHT22;32289;42.688;23.330;2022-11-09T09:45:18;17.60;78.30
46562;DHT22;32289;42.688;23.330;2022-11-09T09:49:16;16.90;81.10
46562;DHT22;32289;42.688;23.330;2022-11-09T09:57:25;17.30;78.90
46562;DHT22;32289;42.688;23.330;2022-11-09T10:01:19;17.90;76.00
46562;DHT22;32289;42.688;23.330;2022-11-09T10:05:08;18.70;75.10
46562;DHT22;32289;42.688;23.330;2022-11-09T10:08:59;19.20;69.00
46562;DHT22;32289;42.688;23.330;2022-11-09T10:25:13;18.30;71.70
46562;DHT22;32289;42.688;23.330;2022-11-09T10:29:01;17.80;73.90
46562;DHT22;32289;42.688;23.330;2022-11-09T10:32:44;18.30;71.70
46562;DHT22;32289;42.688;23.330;2022-11-09T10:36:32;18.70;72.90
46562;DHT22;32289;42.688;23.330;2022-11-09T10:40:27;18.40;71.90
46562;DHT22;32289;42.688;23.330;2022-11-09T10:44:18;18.70;71.30
46562;DHT22;32289;42.688;23.330;2022-11-09T10:48:00;18.70;70.50
46562;DHT22;32289;42.688;23.330;2022-11-09T10:51:43;19.90;67.20
46562;DHT22;32289;42.688;23.330;2022-11-09T10:55:36;19.20;67.40
46562;DHT22;32289;42.688;23.330;2022-11-09T10:59:40;19.60;67.20
46562;DHT22;32289;42.688;23.330;2022-11-09T11:03:23;19.40;67.40
46562;DHT22;32289;42.688;23.330;2022-11-09T11:07:18;19.10;68.60
46562;DHT22;32289;42.688;23.330;2022-11-09T11:14:57;18.90;68.50
46562;DHT22;32289;42.688;23.330;2022-11-09T11:18:43;18.40;70.40
46562;DHT22;32289;42.688;23.330;2022-11-09T11:22:25;18.60;70.00
46562;DHT22;32289;42.688;23.330;2022-11-09T11:30:14;19.80;66.50
46562;DHT22;32289;42.688;23.330;2022-11-09T11:33:57;18.60;68.70
46562;DHT22;32289;42.688;23.330;2022-11-09T11:37:56;19.10;68.20
46562;DHT22;32289;42.688;23.330;2022-11-09T11:46:08;18.40;71.00
46562;DHT22;32289;42.688;23.330;2022-11-09T11:49:56;19.30;68.60
46562;DHT22;32289;42.688;23.330;2022-11-09T11:53:53;18.10;70.70
46562;DHT22;32289;42.688;23.330;2022-11-09T11:58:01;17.80;72.50
46562;DHT22;32289;42.688;23.330;2022-11-09T12:10:03;18.00;71.50
46562;DHT22;32289;42.688;23.330;2022-11-09T12:14:07;17.30;73.50
46562;DHT22;32289;42.688;23.330;2022-11-09T12:26:05;18.00;72.80
46562;DHT22;32289;42.688;23.330;2022-11-09T12:30:20;18.10;71.10
46562;DHT22;32289;42.688;23.330;2022-11-09T12:34:23;18.10;71.40
46562;DHT22;32289;42.688;23.330;2022-11-09T12:38:51;17.60;73.00
46562;DHT22;32289;42.688;23.330;2022-11-09T12:46:54;17.70;72.10
46562;DHT22;32289;42.688;23.330;2022-11-09T12:50:36;18.30;72.00
46562;DHT22;32289;42.688;23.330;2022-11-09T12:54:17;17.70;72.50
46562;DHT22;32289;42.688;23.330;2022-11-09T12:57:58;17.20;74.50
46562;DHT22;32289;42.688;23.330;2022-11-09T13:01:43;17.00;75.70
46562;DHT22;32289;42.688;23.330;2022-11-09T13:05:33;17.30;75.40
46562;DHT22;32289;42.688;23.330;2022-11-09T13:09:22;17.20;75.70
46562;DHT22;32289;42.688;23.330;2022-11-09T13:16:54;17.30;75.60
46562;DHT22;32289;42.688;23.330;2022-11-09T13:39:37;17.00;78.20
46562;DHT22;32289;42.688;23.330;2022-11-09T13:43:39;16.70;77.80
46562;DHT22;32289;42.688;23.330;2022-11-09T13:47:26;16.70;78.00
46562;DHT22;32289;42.688;23.330;2022-11-09T13:51:11;16.90;77.20
46562;DHT22;32289;42.688;23.330;2022-11-09T13:54:53;16.90;77.30
46562;DHT22;32289;42.688;23.330;2022-11-09T13:58:37;16.90;77.10
46562;DHT22;32289;42.688;23.330;2022-11-09T14:02:22;16.70;77.70
46562;DHT22;32289;42.688;23.330;2022-11-09T14:06:03;16.50;79.30
46562;DHT22;32289;42.688;23.330;2022-11-09T14:09:54;16.40;79.90
46562;DHT22;32289;42.688;23.330;2022-11-09T14:21:54;16.10;81.50
46562;DHT22;32289;42.688;23.330;2022-11-09T14:25:35;16.20;82.40
46562;DHT22;32289;42.688;23.330;2022-11-09T14:29:21;15.90;84.40
46562;DHT22;32289;42.688;23.330;2022-11-09T14:33:02;15.90;85.60
46562;DHT22;32289;42.688;23.330;2022-11-09T14:36:43;16.00;85.90
46562;DHT22;32289;42.688;23.330;2022-11-09T14:44:14;15.70;87.90
46562;DHT22;32289;42.688;23.330;2022-11-09T14:47:58;15.70;88.20
46562;DHT22;32289;42.688;23.330;2022-11-09T14:51:39;15.60;88.70
46562;DHT22;32289;42.688;23.330;2022-11-09T14:55:22;15.40;89.90
46562;DHT22;32289;42.688;23.330;2022-11-09T14:59:07;15.20;91.00
46562;DHT22;32289;42.688;23.330;2022-11-09T15:02:49;15.20;91.30
46562;DHT22;32289;42.688;23.330;2022-11-09T15:06:30;15.20;92.20
46562;DHT22;32289;42.688;23.330;2022-11-09T15:10:18;15.00;92.20
46562;DHT22;32289;42.688;23.330;2022-11-09T15:14:10;14.90;92.60
46562;DHT22;32289;42.688;23.330;2022-11-09T15:17:52;14.80;93.00
46562;DHT22;32289;42.688;23.330;2022-11-09T15:21:36;14.70;93.60
46562;DHT22;32289;42.688;23.330;2022-11-09T15:29:38;14.50;94.50
46562;DHT22;32289;42.688;23.330;2022-11-09T15:37:20;14.10;95.30
46562;DHT22;32289;42.688;23.330;2022-11-09T15:41:04;14.10;95.70
46562;DHT22;32289;42.688;23.330;2022-11-09T15:44:53;14.10;95.90
46562;DHT22;32289;42.688;23.330;2022-11-09T15:48:34;14.00;96.40
46562;DHT22;32289;42.688;23.330;2022-11-09T15:52:15;14.00;96.20
46562;DHT22;32289;42.688;23.330;2022-11-09T15:55:56;14.00;97.20
46562;DHT22;32289;42.688;23.330;2022-11-09T15:59:37;13.80;97.10
46562;DHT22;32289;42.688;23.330;2022-11-09T16:03:17;13.70;97.40
46562;DHT22;32289;42.688;23.330;2022-11-09T16:06:58;13.60;97.60
46562;DHT22;32289;42.688;23.330;2022-11-09T16:10:40;13.60;97.70
46562;DHT22;32289;42.688;23.330;2022-11-09T16:14:21;13.60;98.10
46562;DHT22;32289;42.688;23.330;2022-11-09T16:18:03;13.60;98.40
46562;DHT22;32289;42.688;23.330;2022-11-09T16:21:44;13.60;98.20
46562;DHT22;32289;42.688;23.330;2022-11-09T16:25:25;13.50;98.70
46562;DHT22;32289;42.688;23.330;2022-11-09T16:29:06;13.40;98.80
46562;DHT22;32289;42.688;23.330;2022-11-09T16:32:46;13.30;99.20
46562;DHT22;32289;42.688;23.330;2022-11-09T16:36:27;13.10;99.70
46562;DHT22;32289;42.688;23.330;2022-11-09T16:40:12;13.10;99.90
46562;DHT22;32289;42.688;23.330;2022-11-09T16:43:55;12.90;99.90
46562;DHT22;32289;42.688;23.330;2022-11-09T16:47:46;12.80;99.90
46562;DHT22;32289;42.688;23.330;2022-11-09T16:51:28;12.50;99.90
46562;DHT22;32289;42.688;23.330;2022-11-09T16:55:09;12.30;99.90
46562;DHT22;32289;42.688;23.330;2022-11-09T16:58:50;11.90;99.90
46562;DHT22;32289;42.688;23.330;2022-11-09T17:02:31;11.80;99.90
46562;DHT22;32289;42.688;23.330;2022-11-09T17:06:13;11.80;99.90
46562;DHT22;32289;42.688;23.330;2022-11-09T17:09:53;11.90;99.90
46562;DHT22;32289;42.688;23.330;2022-11-09T17:13:34;11.90;99.90
46562;DHT22;32289;42.688;23.330;2022-11-09T17:17:15;11.80;99.90
46562;DHT22;32289;42.688;23.330;2022-11-09T17:20:56;11.70;99.90
46562;DHT22;32289;42.688;23.330;2022-11-09T17:24:36;11.70;99.90
46562;DHT22;32289;42.688;23.330;2022-11-09T17:28:17;11.80;99.90
46562;DHT22;32289;42.688;23.330;2022-11-09T17:31:58;11.80;99.90
46562;DHT22;32289;42.688;23.330;2022-11-09T17:35:39;11.50;99.90
46562;DHT22;32289;42.688;23.330;2022-11-09T17:39:20;11.10;99.90
46562;DHT22;32289;42.688;23.330;2022-11-09T17:43:03;11.20;99.90
46562;DHT22;32289;42.688;23.330;2022-11-09T17:46:43;11.10;99.90
46562;DHT22;32289;42.688;23.330;2022-11-09T17:50:24;11.30;99.90
46562;DHT22;32289;42.688;23.330;2022-11-09T17:54:06;11.30;99.90
46562;DHT22;32289;42.688;23.330;2022-11-09T17:57:47;11.20;99.90
46562;DHT22;32289;42.688;23.330;2022-11-09T18:01:28;11.10;99.90
46562;DHT22;32289;42.688;23.330;2022-11-09T18:05:09;11.10;99.90
46562;DHT22;32289;42.688;23.330;2022-11-09T18:08:50;11.10;99.90
46562;DHT22;32289;42.688;23.330;2022-11-09T18:12:31;11.20;99.90
46562;DHT22;32289;42.688;23.330;2022-11-09T18:16:16;11.20;99.90
46562;DHT22;32289;42.688;23.330;2022-11-09T18:19:57;11.10;99.90
46562;DHT22;32289;42.688;23.330;2022-11-09T18:23:41;11.00;99.90
46562;DHT22;32289;42.688;23.330;2022-11-09T18:27:22;10.90;99.90
46562;DHT22;32289;42.688;23.330;2022-11-09T18:31:11;10.80;99.90
46562;DHT22;32289;42.688;23.330;2022-11-09T18:34:52;10.80;99.90
46562;DHT22;32289;42.688;23.330;2022-11-09T18:38:33;10.80;99.90
46562;DHT22;32289;42.688;23.330;2022-11-09T18:42:14;10.40;99.90
46562;DHT22;32289;42.688;23.330;2022-11-09T18:45:56;10.30;99.90
46562;DHT22;32289;42.688;23.330;2022-11-09T18:49:37;10.50;99.90
46562;DHT22;32289;42.688;23.330;2022-11-09T18:53:22;10.50;99.90
46562;DHT22;32289;42.688;23.330;2022-11-09T18:57:03;10.30;99.90
46562;DHT22;32289;42.688;23.330;2022-11-09T19:00:44;10.20;99.90
46562;DHT22;32289;42.688;23.330;2022-11-09T19:04:25;10.30;99.90
46562;DHT22;32289;42.688;23.330;2022-11-09T19:08:05;10.30;99.90
46562;DHT22;32289;42.688;23.330;2022-11-09T19:11:46;10.30;99.90
46562;DHT22;32289;42.688;23.330;2022-11-09T19:15:28;10.30;99.90
46562;DHT22;32289;42.688;23.330;2022-11-09T19:19:13;10.30;99.90
46562;DHT22;32289;42.688;23.330;2022-11-09T19:22:54;10.30;99.90
46562;DHT22;32289;42.688;23.330;2022-11-09T19:27:09;10.20;99.90
46562;DHT22;32289;42.688;23.330;2022-11-09T19:30:51;10.10;99.90
46562;DHT22;32289;42.688;23.330;2022-11-09T19:34:31;10.00;99.90
46562;DHT22;32289;42.688;23.330;2022-11-09T19:38:12;10.00;99.90
46562;DHT22;32289;42.688;23.330;2022-11-09T19:41:53;9.70;99.90
46562;DHT22;32289;42.688;23.330;2022-11-09T19:45:39;9.60;99.90
46562;DHT22;32289;42.688;23.330;2022-11-09T19:49:19;9.70;99.90
46562;DHT22;32289;42.688;23.330;2022-11-09T19:53:00;9.80;99.90
46562;DHT22;32289;42.688;23.330;2022-11-09T19:56:41;9.80;99.90
46562;DHT22;32289;42.688;23.330;2022-11-09T20:00:21;9.80;99.90
46562;DHT22;32289;42.688;23.330;2022-11-09T20:04:02;9.80;99.90
46562;DHT22;32289;42.688;23.330;2022-11-09T20:07:43;9.80;99.90
46562;DHT22;32289;42.688;23.330;2022-11-09T20:11:25;9.60;99.90
46562;DHT22;32289;42.688;23.330;2022-11-09T20:15:24;9.70;99.90
46562;DHT22;32289;42.688;23.330;2022-11-09T20:19:06;9.60;99.90
46562;DHT22;32289;42.688;23.330;2022-11-09T20:22:52;9.70;99.90
46562;DHT22;32289;42.688;23.330;2022-11-09T20:26:32;9.70;99.90
46562;DHT22;32289;42.688;23.330;2022-11-09T20:30:13;9.70;99.90
46562;DHT22;32289;42.688;23.330;2022-11-09T20:33:55;9.60;99.90
46562;DHT22;32289;42.688;23.330;2022-11-09T20:37:36;9.60;99.90
46562;DHT22;32289;42.688;23.330;2022-11-09T20:41:17;9.60;99.90
46562;DHT22;32289;42.688;23.330;2022-11-09T20:44:57;9.50;99.90
46562;DHT22;32289;42.688;23.330;2022-11-09T20:48:38;9.50;99.90
46562;DHT22;32289;42.688;23.330;2022-11-09T20:52:22;9.40;99.90
46562;DHT22;32289;42.688;23.330;2022-11-09T20:56:03;9.40;99.90
46562;DHT22;32289;42.688;23.330;2022-11-09T20:59:44;9.40;99.90
46562;DHT22;32289;42.688;23.330;2022-11-09T21:03:31;9.40;99.90
46562;DHT22;32289;42.688;23.330;2022-11-09T21:07:12;9.30;99.90
46562;DHT22;32289;42.688;23.330;2022-11-09T21:10:54;9.30;99.90
46562;DHT22;32289;42.688;23.330;2022-11-09T21:14:35;9.30;99.90
46562;DHT22;32289;42.688;23.330;2022-11-09T21:18:17;9.20;99.90
46562;DHT22;32289;42.688;23.330;2022-11-09T21:21:58;9.00;99.90
46562;DHT22;32289;42.688;23.330;2022-11-09T21:25:40;9.00;99.90
46562;DHT22;32289;42.688;23.330;2022-11-09T21:29:39;9.00;99.90
46562;DHT22;32289;42.688;23.330;2022-11-09T21:33:29;9.00;99.90
46562;DHT22;32289;42.688;23.330;2022-11-09T21:37:11;8.90;99.90
46562;DHT22;32289;42.688;23.330;2022-11-09T21:40:58;9.00;99.90
46562;DHT22;32289;42.688;23.330;2022-11-09T21:44:39;9.00;99.90
46562;DHT22;32289;42.688;23.330;2022-11-09T21:48:20;8.90;99.90
46562;DHT22;32289;42.688;23.330;2022-11-09T21:52:01;8.90;99.90
46562;DHT22;32289;42.688;23.330;2022-11-09T21:55:42;8.80;99.90
46562;DHT22;32289;42.688;23.330;2022-11-09T21:59:23;8.80;99.90
46562;DHT22;32289;42.688;23.330;2022-11-09T22:03:04;8.70;99.90
46562;DHT22;32289;42.688;23.330;2022-11-09T22:06:44;8.60;99.90
46562;DHT22;32289;42.688;23.330;2022-11-09T22:10:25;8.60;99.90
46562;DHT22;32289;42.688;23.330;2022-11-09T22:14:13;8.40;99.90
46562;DHT22;32289;42.688;23.330;2022-11-09T22:18:12;8.20;99.90
46562;DHT22;32289;42.688;23.330;2022-11-09T22:22:14;8.20;99.90
46562;DHT22;32289;42.688;23.330;2022-11-09T22:25:55;8.20;99.90
46562;DHT22;32289;42.688;23.330;2022-11-09T22:29:35;8.10;99.90
46562;DHT22;32289;42.688;23.330;2022-11-09T22:33:17;8.20;99.90
46562;DHT22;32289;42.688;23.330;2022-11-09T22:36:59;8.20;99.90
46562;DHT22;32289;42.688;23.330;2022-11-09T22:40:40;8.20;99.90
46562;DHT22;32289;42.688;23.330;2022-11-09T22:44:20;8.00;99.90
46562;DHT22;32289;42.688;23.330;2022-11-09T22:48:01;8.00;99.90
46562;DHT22;32289;42.688;23.330;2022-11-09T22:51:42;8.00;99.90
46562;DHT22;32289;42.688;23.330;2022-11-09T22:55:23;7.80;99.90
46562;DHT22;32289;42.688;23.330;2022-11-09T22:59:04;7.70;99.90
46562;DHT22;32289;42.688;23.330;2022-11-09T23:02:45;7.80;99.90
46562;DHT22;32289;42.688;23.330;2022-11-09T23:06:25;7.70;99.90
46562;DHT22;32289;42.688;23.330;2022-11-09T23:10:07;7.70;99.90
46562;DHT22;32289;42.688;23.330;2022-11-09T23:13:52;7.60;99.90
46562;DHT22;32289;42.688;23.330;2022-11-09T23:17:34;7.40;99.90
46562;DHT22;32289;42.688;23.330;2022-11-09T23:21:39;7.40;99.90
46562;DHT22;32289;42.688;23.330;2022-11-09T23:25:20;7.30;99.90
46562;DHT22;32289;42.688;23.330;2022-11-09T23:29:19;7.20;99.90
46562;DHT22;32289;42.688;23.330;2022-11-09T23:33:01;7.10;99.90
46562;DHT22;32289;42.688;23.330;2022-11-09T23:36:41;7.20;99.90
46562;DHT22;32289;42.688;23.330;2022-11-09T23:40:22;7.20;99.90
46562;DHT22;32289;42.688;23.330;2022-11-09T23:44:03;7.30;99.90
46562;DHT22;32289;42.688;23.330;2022-11-09T23:47:43;7.30;99.90
46562;DHT22;32289;42.688;23.330;2022-11-09T23:51:24;7.30;99.90
46562;DHT22;32289;42.688;23.330;2022-11-09T23:55:05;7.20;99.90
46562;DHT22;32289;42.688;23.330;2022-11-09T23:58:47;7.20;99.90
